KDEH/DEH METAR and TAF weather

Enter ICAO airport designator
Station Type Date Time Source
KDEH METAR 2018/01/17 06:55 UTC NOAA

KDEH 170655Z AUTO 26006KT 10SM CLR M19/M21 A3052 RMK AO2


Station Type Date Time Source
KDEH Decoded METAR 2018/01/17 06:55 UTC NOAA

Decorah, IA, United States (KDEH) 43-17N 091-44W
Jan 17, 2018 - 01:55 AM EST / 2018.01.17 0655 UTC
Wind: from the W (260 degrees) at 7 MPH (6 KT):0
Visibility: 10 mile(s):0
Sky conditions: clear
Temperature: -2 F (-19 C)
Windchill: -14 F (-26 C):2
Dew Point: -5 F (-21 C)
Relative Humidity: 84%
Pressure (altimeter): 30.52 in. Hg (1033 hPa)
ob: KDEH 170655Z AUTO 26006KT 10SM CLR M19/M21 A3052 RMK AO2
cycle: 7

Station Type Date Time Source
KDEH TAF UTC NOAA

Error!


Example: see airport list